createdAt,value
2024-02-28T00:01:24.898Z,32.90
2024-02-28T00:05:27.022Z,43.60
2024-02-28T00:09:29.361Z,34.25
2024-02-28T00:13:32.866Z,38.95
2024-02-28T00:17:34.969Z,37.65
2024-02-28T00:21:37.100Z,34.47
2024-02-28T00:25:39.364Z,34.72
2024-02-28T00:29:43.572Z,31.83
2024-02-28T00:33:45.543Z,30.08
2024-02-28T00:37:47.962Z,28.65
2024-02-28T00:41:50.182Z,34.42
2024-02-28T00:45:53.910Z,27.02
2024-02-28T00:49:56.030Z,24.35
2024-02-28T00:53:58.124Z,28.27
2024-02-28T00:58:00.480Z,33.33
2024-02-28T01:02:04.170Z,34.72
2024-02-28T01:06:06.455Z,41.63
2024-02-28T01:10:09.177Z,31.67
2024-02-28T01:14:11.388Z,36.00
2024-02-28T01:18:15.031Z,39.80
2024-02-28T01:22:17.136Z,38.58
2024-02-28T01:26:19.015Z,38.50
2024-02-28T01:30:21.052Z,37.50
2024-02-28T01:34:24.396Z,37.40
2024-02-28T01:38:26.651Z,37.03
2024-02-28T01:42:29.129Z,49.50
2024-02-28T01:46:31.751Z,40.08
2024-02-28T01:50:35.231Z,36.50
2024-02-28T01:54:37.559Z,32.35
2024-02-28T01:58:41.026Z,30.80
2024-02-28T02:02:43.540Z,42.08
2024-02-28T02:06:47.100Z,37.42
2024-02-28T02:10:49.168Z,39.60
2024-02-28T02:14:51.572Z,34.72
2024-02-28T02:18:53.760Z,32.28
2024-02-28T02:22:57.553Z,32.22
2024-02-28T02:26:59.820Z,40.40
2024-02-28T02:31:02.000Z,34.90
2024-02-28T02:35:05.140Z,31.45
2024-02-28T02:39:08.668Z,35.42
2024-02-28T02:43:10.666Z,37.65
2024-02-28T02:47:12.768Z,37.03
2024-02-28T02:51:14.733Z,39.20
2024-02-28T02:55:18.155Z,47.70
2024-02-28T02:59:20.289Z,42.13
2024-02-28T03:03:22.482Z,31.30
2024-02-28T03:07:24.764Z,39.08
2024-02-28T03:11:28.302Z,38.42
2024-02-28T03:15:30.380Z,31.45
2024-02-28T03:19:32.647Z,30.55
2024-02-28T03:23:35.005Z,38.83
2024-02-28T03:27:38.434Z,35.42
2024-02-28T03:31:40.240Z,27.13
2024-02-28T03:35:42.409Z,32.97
2024-02-28T03:39:44.525Z,40.58
2024-02-28T03:43:47.924Z,32.50
2024-02-28T03:47:50.487Z,38.38
2024-02-28T03:51:52.560Z,36.30
2024-02-28T03:55:54.608Z,36.47
2024-02-28T03:59:58.048Z,35.38
2024-02-28T04:04:00.193Z,28.10
2024-02-28T04:08:04.623Z,33.33
2024-02-28T04:12:09.875Z,33.13
2024-02-28T04:16:13.859Z,30.88
2024-02-28T04:20:16.415Z,31.85
2024-02-28T04:24:18.659Z,34.15
2024-02-28T04:28:20.839Z,32.67
2024-02-28T04:32:24.060Z,36.30
2024-02-28T04:36:26.085Z,33.45
2024-02-28T04:40:28.041Z,40.38
2024-02-28T04:44:30.824Z,49.95
2024-02-28T04:48:34.433Z,39.75
2024-02-28T04:52:36.577Z,55.00
2024-02-28T04:56:41.151Z,47.55
2024-02-28T05:00:43.174Z,27.90
2024-02-28T05:04:46.617Z,29.20
2024-02-28T05:08:48.705Z,35.63
2024-02-28T05:12:51.077Z,68.80
2024-02-28T05:16:53.383Z,32.90
2024-02-28T05:20:57.285Z,31.13
2024-02-28T05:24:59.349Z,38.05
2024-02-28T05:29:01.429Z,41.78
2024-02-28T05:33:04.897Z,32.22
2024-02-28T05:37:08.680Z,40.03
2024-02-28T05:41:10.900Z,30.42
2024-02-28T05:45:12.965Z,29.50
2024-02-28T05:49:14.971Z,32.72
2024-02-28T05:53:18.546Z,33.10
2024-02-28T05:57:20.677Z,42.80
2024-02-28T06:01:22.943Z,34.88
2024-02-28T06:05:25.085Z,58.22
2024-02-28T06:09:28.607Z,37.60
2024-02-28T06:13:30.948Z,36.85
2024-02-28T06:17:32.914Z,41.70
2024-02-28T06:21:35.355Z,51.70
2024-02-28T06:25:38.647Z,66.53
2024-02-28T06:29:40.909Z,58.88
2024-02-28T06:33:43.017Z,52.33
2024-02-28T06:37:45.160Z,50.00
2024-02-28T06:41:48.660Z,67.20
2024-02-28T06:45:50.962Z,58.38
2024-02-28T06:49:53.022Z,61.45
2024-02-28T06:53:55.282Z,75.15
2024-02-28T06:57:59.111Z,77.65
2024-02-28T07:02:01.441Z,81.32
2024-02-28T07:06:03.846Z,46.63
2024-02-28T07:10:07.289Z,51.35
2024-02-28T07:14:11.040Z,45.42
2024-02-28T07:18:13.338Z,46.90
2024-02-28T07:22:15.678Z,48.92
2024-02-28T07:26:26.508Z,49.92
2024-02-28T07:30:32.025Z,41.78
2024-02-28T07:34:34.170Z,40.88
2024-02-28T07:38:36.174Z,37.05
2024-02-28T07:42:38.167Z,35.38
2024-02-28T07:46:43.663Z,45.95
2024-02-28T07:50:46.076Z,45.95
2024-02-28T07:54:48.097Z,37.92
2024-02-28T07:58:50.316Z,41.42
2024-02-28T08:02:53.845Z,35.72
2024-02-28T08:06:56.157Z,34.45
2024-02-28T08:10:58.286Z,28.02
2024-02-28T08:15:00.403Z,31.30
2024-02-28T08:19:04.272Z,40.85
2024-02-28T08:23:06.590Z,28.30
2024-02-28T08:27:08.548Z,31.10
2024-02-28T08:31:11.002Z,32.45
2024-02-28T08:35:14.722Z,32.30
2024-02-28T08:39:16.907Z,29.30
2024-02-28T08:43:18.974Z,33.22
2024-02-28T08:47:24.310Z,29.15
2024-02-28T08:51:27.872Z,25.50
2024-02-28T08:55:30.020Z,26.92
2024-02-28T08:59:32.134Z,31.70
2024-02-28T09:03:34.309Z,27.80
2024-02-28T09:07:37.770Z,30.08
2024-02-28T09:11:39.936Z,27.25
2024-02-28T09:15:42.074Z,21.92
2024-02-28T09:19:44.110Z,22.33
2024-02-28T09:23:47.291Z,24.17
2024-02-28T09:27:49.208Z,23.13
2024-02-28T09:31:52.040Z,28.23
2024-02-28T09:35:54.246Z,29.25
2024-02-28T09:39:57.768Z,21.48
2024-02-28T09:44:03.402Z,50.17
2024-02-28T09:48:07.097Z,24.02
2024-02-28T09:52:09.233Z,26.83
2024-02-28T09:56:14.208Z,25.45
2024-02-28T10:00:19.778Z,23.58
2024-02-28T10:04:22.445Z,29.42
2024-02-28T10:08:24.615Z,30.38
2024-02-28T10:12:28.151Z,29.45
2024-02-28T10:16:30.925Z,25.88
2024-02-28T10:20:33.610Z,30.27
2024-02-28T10:24:36.077Z,30.85
2024-02-28T10:28:40.227Z,27.98
2024-02-28T10:32:49.713Z,27.13
2024-02-28T10:36:52.957Z,33.47
2024-02-28T10:40:55.969Z,35.97
2024-02-28T10:45:10.283Z,32.92
2024-02-28T10:49:21.029Z,28.25
2024-02-28T10:53:29.161Z,30.25
2024-02-28T10:57:34.676Z,31.88
2024-02-28T11:01:40.342Z,35.08
2024-02-28T11:05:43.591Z,26.98
2024-02-28T11:09:46.417Z,36.35
2024-02-28T11:13:55.436Z,33.45
2024-02-28T11:18:08.691Z,32.03
2024-02-28T11:22:12.948Z,31.67
2024-02-28T11:26:15.354Z,32.60
2024-02-28T11:30:17.571Z,52.70
2024-02-28T11:34:21.541Z,26.90
2024-02-28T11:38:25.818Z,33.40
2024-02-28T11:42:28.042Z,26.38
2024-02-28T11:46:30.316Z,45.88
2024-02-28T11:50:33.526Z,30.30
2024-02-28T11:54:35.719Z,33.28
2024-02-28T11:58:37.782Z,32.33
2024-02-28T12:02:40.056Z,31.52
2024-02-28T12:06:44.155Z,33.47
2024-02-28T12:10:46.749Z,54.30
2024-02-28T12:14:49.430Z,35.05
2024-02-28T12:18:51.476Z,39.45
2024-02-28T12:22:55.125Z,34.90
2024-02-28T12:26:57.380Z,29.80
2024-02-28T12:30:59.684Z,34.28
2024-02-28T12:35:01.984Z,33.08
2024-02-28T12:39:05.601Z,30.00
2024-02-28T12:43:07.791Z,30.67
2024-02-28T12:47:10.000Z,26.52
2024-02-28T12:51:21.541Z,34.45
2024-02-28T12:55:25.106Z,33.72
2024-02-28T12:59:27.430Z,27.17
2024-02-28T13:03:29.703Z,28.65
2024-02-28T13:07:31.926Z,25.05
2024-02-28T13:11:36.200Z,27.38
2024-02-28T13:15:38.419Z,30.40
2024-02-28T13:19:40.350Z,29.05
2024-02-28T13:23:42.461Z,47.90
2024-02-28T13:27:46.318Z,28.88
2024-02-28T13:31:48.529Z,33.22
2024-02-28T13:35:50.562Z,36.65
2024-02-28T13:39:52.662Z,31.67
2024-02-28T13:43:56.320Z,30.05
2024-02-28T13:47:58.473Z,27.23
2024-02-28T13:52:00.810Z,28.10
2024-02-28T13:56:02.978Z,29.75
2024-02-28T14:00:08.200Z,36.10
2024-02-28T14:04:09.806Z,28.90
2024-02-28T14:08:11.872Z,31.00
2024-02-28T14:12:14.996Z,41.70
2024-02-28T14:16:18.687Z,28.48
2024-02-28T14:20:20.363Z,34.13
2024-02-28T14:24:22.293Z,34.35
2024-02-28T14:28:24.449Z,51.72
2024-02-28T14:32:28.167Z,31.73
2024-02-28T14:36:30.238Z,31.90
2024-02-28T14:40:32.254Z,35.63
2024-02-28T14:44:34.947Z,33.72
2024-02-28T14:48:38.585Z,34.05
2024-02-28T14:52:42.116Z,34.45
2024-02-28T14:56:44.271Z,51.25
2024-02-28T15:00:46.265Z,34.92
2024-02-28T15:04:49.914Z,34.92
2024-02-28T15:08:52.150Z,39.45
2024-02-28T15:12:54.545Z,38.72
2024-02-28T15:16:57.028Z,37.90
2024-02-28T15:21:02.632Z,38.65
2024-02-28T15:25:06.114Z,36.70
2024-02-28T15:29:08.229Z,33.97
2024-02-28T15:33:10.410Z,36.60
2024-02-28T15:37:13.801Z,35.60
2024-02-28T15:41:16.055Z,32.85
2024-02-28T15:45:18.510Z,37.67
2024-02-28T15:49:28.466Z,38.25
2024-02-28T15:53:36.982Z,31.67
2024-02-28T15:57:39.154Z,35.83
2024-02-28T16:01:41.752Z,35.50
2024-02-28T16:05:43.725Z,54.65
2024-02-28T16:09:47.289Z,35.22
2024-02-28T16:13:49.399Z,35.80
2024-02-28T16:17:51.497Z,52.78
2024-02-28T16:21:53.633Z,30.30
2024-02-28T16:25:57.044Z,39.92
2024-02-28T16:29:59.180Z,33.28
2024-02-28T16:34:01.338Z,35.05
2024-02-28T16:38:03.502Z,34.05
2024-02-28T16:42:07.376Z,32.28
2024-02-28T16:46:09.507Z,39.42
2024-02-28T16:50:11.528Z,35.85
2024-02-28T16:54:13.654Z,43.00
2024-02-28T16:58:17.242Z,55.03
2024-02-28T17:02:19.334Z,38.20
2024-02-28T17:06:21.965Z,39.08
2024-02-28T17:10:24.466Z,32.63
2024-02-28T17:14:28.290Z,68.20
2024-02-28T17:18:30.957Z,41.33
2024-02-28T17:22:33.089Z,42.92
2024-02-28T17:26:37.187Z,52.53
2024-02-28T17:30:41.834Z,52.58
2024-02-28T17:34:44.089Z,47.15
2024-02-28T17:38:46.345Z,43.20
2024-02-28T17:42:48.614Z,44.13
2024-02-28T17:46:52.046Z,36.33
2024-02-28T17:50:53.987Z,38.70
2024-02-28T17:54:55.804Z,44.70
2024-02-28T17:58:57.889Z,44.97
2024-02-28T18:03:03.891Z,49.17
2024-02-28T18:07:09.402Z,48.78
2024-02-28T18:11:11.566Z,54.53
2024-02-28T18:15:13.537Z,53.13
2024-02-28T18:19:16.954Z,58.60
2024-02-28T18:23:27.308Z,47.30
2024-02-28T18:27:33.200Z,46.42
2024-02-28T18:31:35.356Z,51.78
2024-02-28T18:35:38.838Z,51.40
2024-02-28T18:39:41.245Z,50.28
2024-02-28T18:43:44.203Z,49.00
2024-02-28T18:47:46.342Z,40.88
2024-02-28T18:51:49.878Z,48.95
2024-02-28T18:55:54.447Z,48.75
2024-02-28T18:59:56.628Z,47.42
2024-02-28T19:03:58.735Z,46.78
2024-02-28T19:08:02.495Z,49.35
2024-02-28T19:12:04.736Z,51.90
2024-02-28T19:16:07.107Z,71.38
2024-02-28T19:20:09.898Z,92.57
2024-02-28T19:24:12.864Z,80.28
2024-02-28T19:28:14.660Z,60.40
2024-02-28T19:32:16.433Z,55.30
2024-02-28T19:36:18.151Z,40.42
2024-02-28T19:40:21.268Z,48.33
2024-02-28T19:44:23.291Z,46.50
2024-02-28T19:48:25.061Z,44.50
2024-02-28T19:52:26.912Z,48.13
2024-02-28T19:56:29.990Z,52.15
2024-02-28T20:00:31.834Z,47.58
2024-02-28T20:04:33.460Z,45.78
2024-02-28T20:08:35.236Z,42.88
2024-02-28T20:12:41.605Z,43.88
2024-02-28T20:16:43.416Z,42.35
2024-02-28T20:20:45.457Z,48.17
2024-02-28T20:24:47.245Z,49.67
2024-02-28T20:28:50.631Z,41.85
2024-02-28T20:32:52.370Z,40.80
2024-02-28T20:36:54.208Z,47.10
2024-02-28T20:40:55.874Z,56.08
2024-02-28T20:44:58.880Z,49.85
2024-02-28T20:49:00.731Z,52.75
2024-02-28T20:53:02.455Z,45.55
2024-02-28T20:57:12.434Z,47.20
2024-02-28T21:01:19.802Z,55.20
2024-02-28T21:05:21.468Z,47.25
2024-02-28T21:09:23.946Z,60.05
2024-02-28T21:13:25.664Z,46.47
2024-02-28T21:17:29.647Z,46.80
2024-02-28T21:21:31.625Z,55.53
2024-02-28T21:25:33.337Z,49.55
2024-02-28T21:29:35.505Z,48.22
2024-02-28T21:33:38.892Z,41.45
2024-02-28T21:37:40.856Z,42.22
2024-02-28T21:41:42.690Z,48.38
2024-02-28T21:45:44.485Z,39.75
2024-02-28T21:49:47.735Z,51.03
2024-02-28T21:53:49.510Z,46.67
2024-02-28T21:57:51.209Z,41.33
2024-02-28T22:01:52.911Z,46.13
2024-02-28T22:05:56.014Z,46.78
2024-02-28T22:09:58.040Z,43.85
2024-02-28T22:13:59.671Z,37.88
2024-02-28T22:18:01.542Z,47.22
2024-02-28T22:22:05.152Z,47.13
2024-02-28T22:26:06.933Z,49.58
2024-02-28T22:30:09.149Z,73.32
2024-02-28T22:34:11.558Z,53.85
2024-02-28T22:38:15.358Z,48.65
2024-02-28T22:42:17.903Z,48.50
2024-02-28T22:46:20.334Z,42.95
2024-02-28T22:50:22.177Z,45.38
2024-02-28T22:54:25.469Z,42.75
2024-02-28T22:58:28.302Z,42.42
2024-02-28T23:02:30.581Z,40.60
2024-02-28T23:06:32.285Z,41.92
2024-02-28T23:10:35.655Z,45.55
2024-02-28T23:14:37.545Z,42.72
2024-02-28T23:18:39.549Z,39.30
2024-02-28T23:22:41.456Z,40.47
2024-02-28T23:26:45.212Z,30.05
2024-02-28T23:30:47.309Z,31.65
2024-02-28T23:34:49.508Z,34.97
2024-02-28T23:38:51.738Z,35.05
2024-02-28T23:42:55.177Z,34.47
2024-02-28T23:46:57.818Z,35.60
2024-02-28T23:51:00.169Z,29.83
2024-02-28T23:55:02.122Z,32.28
2024-02-28T23:59:05.561Z,36.28
